Time;durP1;ratioP1;P1;durP2;ratioP2;P2;SDS_P1;SDS_P2;PMS_P1;PMS_P2;Temp;Humidity;BMP_temperature;BMP_pressure;BME280_temperature;BME280_humidity;BME280_pressure;Samples;Min_cycle;Max_cycle;Signal;HPM_P1;HPM_P2
2022/05/15 00:01:05;;;;;;;31.27;9.43;;;17.90;86.80;;;;;;5067419;28;20423;-64
2022/05/15 00:03:39;;;;;;;31.52;10.52;;;17.90;86.80;;;;;;5068095;28;20403;-67
2022/05/15 00:06:05;;;;;;;32.75;9.52;;;17.90;87.10;;;;;;5065779;28;20931;-68
2022/05/15 00:08:35;;;;;;;38.97;10.05;;;17.80;87.30;;;;;;5070071;28;20404;-68
2022/05/15 00:11:01;;;;;;;33.63;10.18;;;17.80;87.70;;;;;;5066148;28;20510;-70
2022/05/15 00:13:28;;;;;;;37.73;10.03;;;17.70;88.00;;;;;;5068056;28;20466;-67
2022/05/15 00:15:53;;;;;;;36.95;10.32;;;17.70;88.30;;;;;;5066847;28;20415;-67
2022/05/15 00:18:21;;;;;;;34.37;10.23;;;17.70;88.80;;;;;;5050654;28;20409;-68
2022/05/15 00:20:49;;;;;;;35.22;10.55;;;17.70;89.00;;;;;;5067095;28;20562;-68
2022/05/15 00:23:16;;;;;;;37.33;10.43;;;17.60;89.10;;;;;;5069876;28;20418;-69
2022/05/15 00:25:42;;;;;;;35.97;10.70;;;17.60;89.30;;;;;;5067230;28;20443;-68
2022/05/15 00:28:08;;;;;;;34.10;10.68;;;17.60;89.70;;;;;;5068872;28;20458;-67
2022/05/15 00:30:36;;;;;;;37.33;10.85;;;17.60;89.90;;;;;;5067449;28;20411;-68
2022/05/15 00:33:02;;;;;;;37.95;10.63;;;17.60;90.00;;;;;;5069037;28;20470;-68
2022/05/15 00:35:29;;;;;;;39.83;11.18;;;17.50;90.00;;;;;;5066500;28;20543;-67
2022/05/15 00:37:54;;;;;;;40.33;11.05;;;17.50;90.10;;;;;;5067114;28;20416;-67
2022/05/15 00:40:22;;;;;;;36.92;10.52;;;17.50;90.30;;;;;;5066506;28;20759;-68
2022/05/15 00:42:49;;;;;;;33.80;10.27;;;17.50;90.30;;;;;;5068613;28;20404;-66
2022/05/15 00:45:17;;;;;;;31.20;10.32;;;17.40;90.40;;;;;;5066216;28;20422;-68
2022/05/15 00:47:43;;;;;;;36.97;10.27;;;17.40;90.60;;;;;;5069673;28;20403;-65
2022/05/15 00:50:13;;;;;;;33.97;10.15;;;17.40;90.70;;;;;;5067048;28;20453;-69
2022/05/15 00:52:44;;;;;;;39.78;10.82;;;17.40;90.70;;;;;;5069650;28;20423;-68
2022/05/15 00:55:15;;;;;;;32.85;10.30;;;17.40;90.80;;;;;;5063383;28;20951;-69
2022/05/15 00:57:47;;;;;;;36.80;10.50;;;17.40;90.90;;;;;;5067295;28;20418;-66
2022/05/15 01:00:15;;;;;;;32.15;10.20;;;17.30;91.00;;;;;;5066298;28;20468;-67
2022/05/15 01:02:50;;;;;;;28.50;10.40;;;17.40;91.20;;;;;;5048254;28;20407;-67
2022/05/15 01:05:17;;;;;;;40.20;10.52;;;17.30;91.10;;;;;;5066856;28;20749;-66
2022/05/15 01:07:43;;;;;;;34.72;10.13;;;17.30;91.10;;;;;;5068478;28;20407;-67
2022/05/15 01:10:11;;;;;;;32.08;10.25;;;17.30;91.30;;;;;;5048124;28;20415;-65
2022/05/15 01:12:41;;;;;;;30.48;9.93;;;17.20;91.40;;;;;;5066038;28;20403;-66
2022/05/15 01:15:14;;;;;;;33.60;9.80;;;17.20;91.30;;;;;;5066376;28;20498;-66
2022/05/15 01:17:41;;;;;;;32.55;9.90;;;17.20;91.50;;;;;;5066985;28;20396;-65
2022/05/15 01:20:12;;;;;;;32.63;10.60;;;17.20;91.50;;;;;;5067116;28;20422;-66
2022/05/15 01:22:39;;;;;;;36.75;10.73;;;17.20;91.60;;;;;;5064967;28;20413;-64
2022/05/15 01:25:12;;;;;;;35.30;10.40;;;17.20;91.70;;;;;;5065175;28;20494;-66
2022/05/15 01:27:38;;;;;;;39.45;10.68;;;17.10;91.80;;;;;;5051195;28;20411;-64
2022/05/15 01:30:05;;;;;;;31.95;10.00;;;17.10;91.80;;;;;;5049056;28;20403;-66
2022/05/15 01:32:31;;;;;;;33.28;10.05;;;17.10;91.70;;;;;;5064838;28;20461;-66
2022/05/15 01:35:01;;;;;;;33.75;10.10;;;17.10;91.70;;;;;;5066877;28;20470;-67
2022/05/15 01:37:27;;;;;;;35.25;9.73;;;17.10;91.60;;;;;;5065420;28;20923;-66
2022/05/15 01:39:52;;;;;;;34.67;10.47;;;17.10;91.60;;;;;;5066487;28;20879;-67
2022/05/15 01:42:18;;;;;;;30.60;10.00;;;17.00;91.60;;;;;;5064054;28;21257;-68
2022/05/15 01:44:44;;;;;;;35.65;10.07;;;17.00;91.60;;;;;;5065216;28;20556;-68
2022/05/15 01:47:09;;;;;;;37.30;10.93;;;17.00;91.80;;;;;;5060158;28;20454;-68
2022/05/15 01:49:38;;;;;;;37.67;10.57;;;16.90;91.80;;;;;;5064967;28;20400;-66
2022/05/15 01:52:04;;;;;;;34.87;10.27;;;16.90;91.90;;;;;;5049844;28;20463;-67
2022/05/15 01:54:30;;;;;;;32.50;9.90;;;16.90;92.00;;;;;;5047844;28;20458;-66
2022/05/15 01:56:55;;;;;;;32.20;9.80;;;16.90;91.90;;;;;;5065935;28;20423;-66
2022/05/15 01:59:21;;;;;;;36.07;10.10;;;16.90;91.70;;;;;;5064535;28;20453;-66
2022/05/15 02:01:47;;;;;;;38.33;10.32;;;16.90;91.70;;;;;;5065560;28;20743;-67
2022/05/15 02:04:13;;;;;;;38.28;10.10;;;16.80;91.60;;;;;;5049096;28;20414;-67
2022/05/15 02:06:39;;;;;;;33.50;10.00;;;16.80;91.70;;;;;;5064174;28;20411;-66
2022/05/15 02:09:06;;;;;;;33.58;9.68;;;16.80;91.60;;;;;;5064820;28;20462;-65
2022/05/15 02:11:34;;;;;;;33.05;9.60;;;16.70;91.60;;;;;;5067166;28;20403;-67
2022/05/15 02:14:00;;;;;;;33.13;9.43;;;16.70;91.60;;;;;;5063740;28;20534;-65
2022/05/15 02:16:26;;;;;;;34.13;9.60;;;16.70;91.70;;;;;;5067303;28;20418;-66
2022/05/15 02:18:52;;;;;;;34.75;9.40;;;16.70;91.70;;;;;;5060552;28;20426;-65
2022/05/15 02:21:18;;;;;;;30.40;9.63;;;16.60;91.70;;;;;;5068143;28;20829;-65
2022/05/15 02:23:43;;;;;;;33.35;9.20;;;16.60;91.70;;;;;;5067468;28;20410;-63
2022/05/15 02:26:10;;;;;;;30.48;8.10;;;16.60;91.50;;;;;;5064310;28;20182;-65
2022/05/15 02:28:36;;;;;;;;;;;16.20;91.90;;;;;;5066224;28;20043;-68
2022/05/15 02:31:01;;;;;;;;;;;15.80;91.90;;;;;;5065196;28;20287;-66
2022/05/15 02:33:27;;;;;;;;;;;15.60;92.20;;;;;;5067060;28;20010;-66
2022/05/15 02:35:53;;;;;;;;;;;15.40;92.50;;;;;;5066321;28;19948;-65
2022/05/15 02:38:19;;;;;;;;;;;15.30;92.70;;;;;;5066340;28;19921;-67
2022/05/15 02:40:45;;;;;;;;;;;15.20;92.80;;;;;;5068528;28;19916;-67
2022/05/15 02:43:11;;;;;;;;;;;15.10;92.80;;;;;;5064681;28;19975;-67
2022/05/15 02:45:37;;;;;;;;;;;15.00;92.90;;;;;;5066651;28;19951;-67
2022/05/15 02:48:03;;;;;;;;;;;14.90;92.90;;;;;;5066140;28;20365;-68
2022/05/15 02:53:13;;;;;;;;;;;14.80;92.90;;;;;;5070383;28;19963;-66
2022/05/15 02:55:39;;;;;;;;;;;14.70;92.90;;;;;;5072454;28;19920;-67
2022/05/15 02:58:04;;;;;;;;;;;14.70;92.90;;;;;;5072845;28;19995;-67
2022/05/15 03:00:30;;;;;;;;;;;14.60;92.90;;;;;;5074618;28;19916;-67
2022/05/15 03:02:56;;;;;;;;;;;14.60;92.90;;;;;;5070182;28;19923;-69
2022/05/15 03:05:21;;;;;;;;;;;14.50;92.90;;;;;;5075109;28;19998;-67
2022/05/15 03:07:48;;;;;;;;;;;14.50;93.00;;;;;;5070719;28;19916;-67
2022/05/15 03:10:15;;;;;;;;;;;14.50;93.00;;;;;;5073419;28;20521;-67
2022/05/15 03:12:41;;;;;;;;;;;14.40;92.20;;;;;;5073389;28;19912;-68
2022/05/15 03:15:07;;;;;;;;;;;14.90;93.70;;;;;;5056514;28;19923;-67
2022/05/15 03:17:34;;;;;;;;;;;15.20;93.60;;;;;;5074234;28;19914;-68
2022/05/15 03:20:01;;;;;;;;;;;15.40;93.50;;;;;;5072215;28;19965;-68
2022/05/15 03:22:27;;;;;;;;;;;15.50;93.40;;;;;;5073281;28;20426;-67
2022/05/15 03:24:53;;;;;;;;;;;15.60;93.20;;;;;;5074454;28;19908;-65
2022/05/15 03:27:18;;;;;;;;;;;15.70;93.00;;;;;;5071845;28;19948;-68
2022/05/15 03:29:44;;;;;;;;;;;15.70;92.70;;;;;;5074045;28;19912;-65
2022/05/15 03:32:10;;;;;;;;;;;15.80;92.60;;;;;;5070345;28;19916;-67
2022/05/15 03:34:35;;;;;;;;;;;15.80;92.50;;;;;;5074342;28;19935;-68
2022/05/15 03:37:01;;;;;;;;;;;15.80;92.30;;;;;;5071905;28;19946;-67
2022/05/15 03:39:27;;;;;;;;;;;15.80;92.30;;;;;;5073340;28;19919;-68
2022/05/15 03:41:53;;;;;;;;;;;15.80;92.20;;;;;;5072756;28;19916;-67
2022/05/15 03:44:20;;;;;;;;;;;15.80;92.20;;;;;;5072594;28;20014;-68
2022/05/15 03:46:46;;;;;;;;;;;15.80;92.20;;;;;;5069243;28;20330;-67
2022/05/15 03:49:13;;;;;;;;;;;15.80;92.30;;;;;;5071038;28;19913;-67
2022/05/15 03:51:40;;;;;;;;;;;15.80;92.30;;;;;;5056956;28;19970;-67
2022/05/15 03:54:05;;;;;;;;;;;15.80;92.30;;;;;;5074289;28;19940;-67
2022/05/15 03:56:49;;;;;;;;;;;15.80;92.40;;;;;;5073026;28;19963;-69
2022/05/15 03:59:16;;;;;;;;;;;15.80;92.50;;;;;;5073187;28;19915;-67
2022/05/15 04:01:41;;;;;;;;;;;15.70;92.60;;;;;;5070260;28;20344;-67
2022/05/15 04:04:07;;;;;;;;;;;15.80;92.60;;;;;;5071350;28;20000;-66
2022/05/15 04:06:33;;;;;;;;;;;15.80;92.50;;;;;;5067439;28;20392;-67
2022/05/15 04:08:59;;;;;;;;;;;15.80;92.50;;;;;;5067172;28;20005;-66
2022/05/15 04:11:25;;;;;;;;;;;15.80;92.50;;;;;;5069808;28;20616;-68
2022/05/15 04:13:51;;;;;;;;;;;15.80;92.50;;;;;;5070956;28;19916;-67
2022/05/15 04:16:16;;;;;;;;;;;15.80;92.50;;;;;;5069896;28;19916;-68
2022/05/15 04:18:42;;;;;;;;;;;15.80;92.60;;;;;;5070785;28;19954;-66
2022/05/15 04:21:08;;;;;;;;;;;15.80;92.50;;;;;;5067283;28;19909;-68
2022/05/15 04:23:35;;;;;;;;;;;15.70;92.40;;;;;;5054507;28;19947;-67
2022/05/15 04:26:00;;;;;;;;;;;15.70;92.50;;;;;;5068922;28;20578;-70
2022/05/15 04:28:26;;;;;;;;;;;15.70;92.60;;;;;;5057273;28;19923;-68
2022/05/15 04:30:52;;;;;;;;;;;15.70;92.80;;;;;;5069006;28;19995;-68
2022/05/15 04:33:18;;;;;;;;;;;15.70;92.80;;;;;;5070254;28;19954;-67
2022/05/15 04:35:43;;;;;;;;;;;15.70;92.80;;;;;;5067876;28;19962;-67
2022/05/15 04:38:09;;;;;;;;;;;15.70;92.90;;;;;;5069060;28;20006;-68
2022/05/15 04:40:34;;;;;;;;;;;15.70;92.90;;;;;;5064197;28;19978;-65
2022/05/15 04:43:00;;;;;;;;;;;15.80;92.90;;;;;;5070059;28;19912;-69
2022/05/15 04:45:26;;;;;;;;;;;15.80;92.90;;;;;;5065803;28;19909;-67
2022/05/15 04:47:51;;;;;;;;;;;15.80;92.90;;;;;;5068146;28;19923;-68
2022/05/15 04:50:18;;;;;;;;;;;15.80;92.90;;;;;;5067234;28;19917;-67
2022/05/15 04:52:43;;;;;;;;;;;15.80;92.90;;;;;;5070317;28;20276;-67
2022/05/15 04:55:09;;;;;;;;;;;15.80;92.90;;;;;;5067064;28;19908;-68
2022/05/15 04:57:35;;;;;;;;;;;15.80;92.70;;;;;;5069229;28;19939;-68
2022/05/15 05:00:03;;;;;;;;;;;15.80;92.80;;;;;;5070990;28;19913;-68
2022/05/15 05:02:28;;;;;;;;;;;15.80;92.70;;;;;;5070290;28;19913;-68
2022/05/15 05:04:55;;;;;;;;;;;15.90;92.70;;;;;;5068104;28;19916;-67
2022/05/15 05:07:21;;;;;;;;;;;15.90;92.70;;;;;;5066368;28;19982;-68
2022/05/15 05:09:46;;;;;;;;;;;15.90;92.70;;;;;;5067277;28;19908;-66
2022/05/15 05:12:12;;;;;;;;;;;15.90;92.70;;;;;;5068758;28;19916;-68
2022/05/15 05:14:38;;;;;;;;;;;15.90;92.80;;;;;;5067434;28;20006;-67
2022/05/15 05:17:03;;;;;;;;;;;15.90;92.90;;;;;;5064528;28;19919;-66
2022/05/15 05:19:29;;;;;;;;;;;15.90;92.80;;;;;;5065859;28;19923;-67
2022/05/15 05:21:54;;;;;;;;;;;16.00;92.80;;;;;;5065869;28;19912;-67
2022/05/15 05:24:20;;;;;;;;;;;16.00;92.90;;;;;;5069770;28;19908;-66
2022/05/15 05:26:46;;;;;;;;;;;16.00;92.70;;;;;;5067614;28;20006;-66
2022/05/15 05:29:11;;;;;;;;;;;16.00;92.40;;;;;;5068621;28;19954;-68
2022/05/15 05:31:37;;;;;;;;;;;16.00;92.50;;;;;;5061742;28;20365;-68
2022/05/15 05:34:03;;;;;;;;;;;16.10;92.50;;;;;;5048071;28;19966;-66
2022/05/15 05:36:28;;;;;;;;;;;16.10;92.40;;;;;;5066554;28;19908;-68
2022/05/15 05:38:54;;;;;;;;;;;16.10;92.50;;;;;;5069550;28;19922;-67
2022/05/15 05:41:19;;;;;;;;;;;16.10;92.30;;;;;;5067076;28;19948;-67
2022/05/15 05:43:45;;;;;;;;;;;16.10;92.40;;;;;;5067083;28;20272;-68
2022/05/15 05:46:10;;;;;;;;;;;16.10;92.70;;;;;;5067382;28;19973;-67
2022/05/15 05:48:36;;;;;;;;;;;16.10;92.90;;;;;;5066432;28;19923;-67
2022/05/15 05:51:02;;;;;;;;;;;16.20;93.00;;;;;;5063221;28;19966;-67
2022/05/15 05:53:27;;;;;;;;;;;16.20;92.90;;;;;;5064296;28;19962;-67
2022/05/15 05:55:53;;;;;;;;;;;16.30;93.00;;;;;;5064944;28;20357;-67
2022/05/15 05:58:18;;;;;;;;;;;16.30;93.20;;;;;;5066121;28;19912;-68
2022/05/15 06:00:44;;;;;;;;;;;16.30;93.10;;;;;;5058064;28;19916;-66
2022/05/15 06:05:54;;;;;;;;;;;16.40;92.90;;;;;;5062304;28;20281;-68
2022/05/15 06:08:20;;;;;;;;;;;16.40;92.60;;;;;;5065320;28;19920;-66
2022/05/15 06:10:46;;;;;;;;;;;16.50;92.60;;;;;;5066327;28;19915;-66
2022/05/15 06:13:12;;;;;;;;;;;16.60;92.50;;;;;;5064706;28;20426;-66
2022/05/15 06:15:38;;;;;;;;;;;16.60;92.10;;;;;;5067629;28;19920;-66
2022/05/15 06:18:05;;;;;;;;;;;16.60;91.60;;;;;;5058006;28;19912;-67
2022/05/15 06:20:31;;;;;;;;;;;16.60;91.40;;;;;;5058494;28;20315;-66
2022/05/15 06:22:56;;;;;;;;;;;16.70;91.60;;;;;;5062350;28;19920;-66
2022/05/15 06:25:22;;;;;;;;;;;16.70;91.30;;;;;;5064758;28;19984;-66
2022/05/15 06:27:48;;;;;;;;;;;16.80;91.10;;;;;;5059607;28;19912;-68
2022/05/15 06:30:14;;;;;;;;;;;16.80;91.10;;;;;;5059918;28;20296;-66
2022/05/15 06:32:40;;;;;;;;;;;16.80;90.70;;;;;;5063795;28;19957;-67
2022/05/15 06:35:06;;;;;;;;;;;16.90;90.80;;;;;;5065802;28;19912;-65
2022/05/15 06:37:32;;;;;;;;;;;16.90;90.50;;;;;;5065483;28;19924;-66
2022/05/15 06:39:57;;;;;;;;;;;17.00;90.40;;;;;;5065625;28;20410;-67
2022/05/15 06:42:23;;;;;;;;;;;17.00;90.50;;;;;;5065220;28;19942;-67
2022/05/15 06:44:50;;;;;;;;;;;17.00;90.70;;;;;;5049595;28;19912;-68
2022/05/15 06:47:16;;;;;;;;;;;17.10;90.30;;;;;;5046915;28;20438;-67
2022/05/15 06:49:41;;;;;;;;;;;17.10;90.10;;;;;;5065247;28;20011;-68
2022/05/15 06:52:07;;;;;;;;;;;17.10;90.00;;;;;;5064143;28;20349;-67
2022/05/15 06:54:33;;;;;;;;;;;17.20;89.60;;;;;;5066337;28;20456;-66
2022/05/15 06:59:43;;;;;;;;;;;17.20;89.70;;;;;;5069100;28;20656;-68
2022/05/15 07:02:08;;;;;;;;;;;17.30;90.10;;;;;;5063811;28;19959;-68
2022/05/15 07:04:34;;;;;;;;;;;17.40;89.40;;;;;;5067034;28;19951;-67
2022/05/15 07:06:59;;;;;;;;;;;17.40;89.50;;;;;;5060760;28;20287;-67
2022/05/15 07:09:27;;;;;;;;;;;17.50;88.10;;;;;;5047180;28;19913;-67
2022/05/15 07:11:53;;;;;;;;;;;17.60;88.90;;;;;;5065360;28;20075;-67
2022/05/15 07:14:19;;;;;;;;;;;17.60;89.00;;;;;;5061050;28;20583;-67
2022/05/15 07:16:44;;;;;;;;;;;17.70;88.90;;;;;;5065867;28;19916;-69
2022/05/15 07:19:10;;;;;;;;;;;17.70;87.70;;;;;;5067697;28;20377;-67
2022/05/15 07:21:35;;;;;;;;;;;17.80;88.00;;;;;;5062354;28;19919;-69
2022/05/15 07:24:01;;;;;;;;;;;17.80;87.10;;;;;;5059761;28;19916;-66
2022/05/15 07:26:26;;;;;;;;;;;17.80;86.90;;;;;;5062570;28;19921;-69
2022/05/15 07:28:52;;;;;;;;;;;17.90;87.00;;;;;;5062514;28;19916;-68
2022/05/15 07:31:18;;;;;;;;;;;18.00;86.80;;;;;;5060501;28;19927;-67
2022/05/15 07:33:44;;;;;;;;;;;18.10;85.10;;;;;;5061706;28;19912;-69
2022/05/15 07:36:10;;;;;;;;;;;18.10;84.20;;;;;;5059174;28;19915;-67
2022/05/15 07:38:35;;;;;;;;;;;18.20;85.10;;;;;;5065549;28;19919;-68
2022/05/15 07:41:01;;;;;;;;;;;18.30;84.20;;;;;;5062905;28;19924;-68
2022/05/15 07:43:27;;;;;;;;;;;18.40;84.20;;;;;;5068048;28;20482;-67
2022/05/15 07:45:53;;;;;;;;;;;18.40;82.90;;;;;;5067701;28;19916;-66
2022/05/15 07:48:19;;;;;;;;;;;18.50;83.20;;;;;;5066230;28;20429;-66
2022/05/15 07:50:45;;;;;;;;;;;18.60;83.80;;;;;;5064335;28;19912;-68
2022/05/15 07:53:11;;;;;;;;;;;18.60;81.90;;;;;;5065629;28;19983;-66
2022/05/15 07:55:37;;;;;;;;;;;18.70;83.00;;;;;;5070405;28;19916;-67
2022/05/15 07:58:02;;;;;;;;;;;18.80;83.30;;;;;;5067582;28;19909;-68
2022/05/15 08:00:28;;;;;;;;;;;18.80;82.70;;;;;;5069216;28;19935;-67
2022/05/15 08:03:01;;;;;;;;;;;18.90;82.30;;;;;;5065158;28;19908;-66
2022/05/15 08:08:11;;;;;;;;;;;19.10;81.70;;;;;;5065732;28;19956;-67
2022/05/15 08:10:38;;;;;;;;;;;19.20;81.10;;;;;;5066983;28;20041;-67
2022/05/15 08:13:04;;;;;;;;;;;19.30;80.60;;;;;;5067204;28;19912;-67
2022/05/15 08:15:30;;;;;;;;;;;19.40;79.30;;;;;;5067611;28;20368;-68
2022/05/15 08:17:56;;;;;;;;;;;19.50;80.90;;;;;;5068111;28;19914;-70
2022/05/15 08:25:50;;;;;;;;;;;20.30;76.60;;;;;;5063810;28;20368;-68
2022/05/15 08:28:15;;;;;;;;;;;20.80;74.80;;;;;;5063199;28;19916;-67
2022/05/15 08:30:41;;;;;;;;;;;21.20;71.70;;;;;;5061307;28;20000;-72
2022/05/15 08:33:07;;;;;;;;;;;21.60;71.00;;;;;;5050377;28;19912;-72
2022/05/15 08:35:33;;;;;;;;;;;21.90;68.60;;;;;;5070187;28;20351;-71
2022/05/15 08:37:59;;;;;;;;;;;22.10;67.30;;;;;;5064704;28;19928;-72
2022/05/15 08:40:41;;;;;;;;;;;22.20;66.40;;;;;;5068797;28;19908;-72
2022/05/15 08:43:09;;;;;;;;;;;22.10;66.50;;;;;;5064865;28;20278;-69
2022/05/15 08:45:37;;;;;;;;;;;22.10;66.20;;;;;;5070418;28;21774;-68
2022/05/15 08:48:07;;;;;;;;;;;22.10;66.20;;;;;;5066446;28;19916;-67
2022/05/15 08:50:34;;;;;;;;;;;22.30;65.70;;;;;;5067737;28;20021;-68
2022/05/15 08:53:02;;;;;;;;;;;22.60;64.30;;;;;;5064237;28;20257;-69
2022/05/15 08:55:31;;;;;;;;;;;23.00;63.80;;;;;;5067108;28;19961;-69
2022/05/15 08:58:00;;;;;;;;;;;23.70;60.30;;;;;;5067828;28;19962;-69
2022/05/15 09:00:37;;;;;;;;;;;24.50;57.10;;;;;;5069747;28;20254;-69
2022/05/15 09:03:11;;;;;;;;;;;25.50;55.00;;;;;;5066936;28;19920;-70
2022/05/15 09:05:37;;;;;;;;;;;26.50;52.70;;;;;;5067699;28;19991;-67
2022/05/15 09:08:12;;;;;;;;;;;27.50;48.90;;;;;;5067248;28;19916;-67
2022/05/15 09:10:57;;;;;;;;;;;28.50;46.50;;;;;;5069707;28;20343;-68
2022/05/15 09:13:46;;;;;;;;;;;29.40;44.40;;;;;;5066996;28;19919;-68
2022/05/15 09:16:27;;;;;;;;;;;30.30;42.40;;;;;;5066304;28;19952;-69
2022/05/15 09:19:05;;;;;;;;;;;30.90;40.10;;;;;;5062943;28;19917;-68
2022/05/15 09:21:31;;;;;;;;;;;31.40;39.00;;;;;;5063320;28;19909;-68
2022/05/15 09:24:03;;;;;;;;;;;32.00;38.40;;;;;;5066131;28;20388;-68
2022/05/15 09:26:30;;;;;;;;;;;32.70;37.10;;;;;;5067718;28;19909;-68
2022/05/15 09:29:01;;;;;;;;;;;33.40;35.30;;;;;;5067786;28;19912;-70
2022/05/15 09:31:29;;;;;;;;;;;34.00;34.10;;;;;;5066865;28;19918;-69
2022/05/15 09:33:59;;;;;;;;;;;34.60;33.00;;;;;;5070768;28;19915;-68
2022/05/15 09:36:31;;;;;;;;;;;35.00;32.50;;;;;;5068435;28;19927;-69
2022/05/15 09:39:15;;;;;;;;;;;34.50;32.30;;;;;;5051480;28;19927;-68
2022/05/15 09:44:35;;;;;;;;;;;32.20;36.00;;;;;;5068186;28;19908;-69
2022/05/15 09:47:03;;;;;;;;;;;31.10;38.10;;;;;;5068471;28;20410;-69
2022/05/15 09:49:31;;;;;;;;;;;30.20;40.50;;;;;;5066260;28;20380;-69
2022/05/15 09:51:59;;;;;;;;;;;29.50;41.40;;;;;;5067040;28;19912;-69
2022/05/15 09:54:28;;;;;;;;;;;28.80;42.90;;;;;;5069377;28;19927;-68
2022/05/15 09:57:07;;;;;;;;;;;28.30;43.80;;;;;;5066923;28;19983;-69
2022/05/15 09:59:33;;;;;;;;;;;27.90;44.60;;;;;;5059510;28;20273;-69
2022/05/15 10:02:00;;;;;;;;;;;27.50;45.10;;;;;;5062862;28;19923;-69
2022/05/15 10:04:28;;;;;;;;;;;27.30;45.50;;;;;;5068866;28;19915;-69
2022/05/15 10:06:58;;;;;;;;;;;27.00;47.40;;;;;;5066128;28;19919;-73
2022/05/15 10:09:25;;;;;;;;;;;26.80;48.40;;;;;;5068328;28;19923;-70
2022/05/15 10:11:54;;;;;;;;;;;26.70;47.70;;;;;;5064575;28;19997;-73
2022/05/15 10:14:23;;;;;;;;;;;26.50;48.50;;;;;;5066282;28;19908;-68
2022/05/15 10:16:50;;;;;;;;;;;26.40;48.40;;;;;;5066229;28;19908;-70
2022/05/15 10:19:24;;;;;;;;;;;26.30;49.30;;;;;;5063119;28;19941;-69
2022/05/15 10:22:05;;;;;;;;;;;26.30;49.80;;;;;;5067368;28;19936;-69
2022/05/15 10:24:34;;;;;;;;;;;26.20;50.40;;;;;;5069635;28;19915;-68
2022/05/15 10:27:10;;;;;;;;;;;26.20;50.80;;;;;;5064497;28;20587;-69
2022/05/15 10:29:54;;;;;;;;;;;26.20;49.80;;;;;;5066146;28;19944;-67
2022/05/15 10:32:42;;;;;;;;;;;26.20;49.80;;;;;;5067145;28;20312;-68
2022/05/15 10:35:17;;;;;;;;;;;26.20;50.30;;;;;;5066896;28;19909;-69
2022/05/15 10:38:01;;;;;;;;;;;26.30;50.40;;;;;;5068043;28;20387;-69
2022/05/15 10:40:34;;;;;;;;;;;26.40;50.80;;;;;;5063414;28;19998;-69
2022/05/15 10:43:12;;;;;;;;;;;26.50;50.90;;;;;;5062744;28;19914;-71
2022/05/15 10:45:44;;;;;;;;;;;26.60;49.60;;;;;;5066932;28;19966;-72
2022/05/15 10:48:24;;;;;;;;;;;26.80;50.20;;;;;;5064394;28;19912;-70
2022/05/15 10:50:59;;;;;;;;;;;26.90;48.70;;;;;;5068748;28;19909;-69
2022/05/15 10:59:28;;;;;;;;;;;27.50;49.00;;;;;;5063469;28;19913;-69
2022/05/15 11:02:00;;;;;;;;;;;27.50;46.30;;;;;;5064403;28;19969;-71
2022/05/15 11:04:45;;;;;;;;;;;27.50;47.00;;;;;;5069534;28;19919;-71
2022/05/15 11:07:31;;;;;;;;;;;27.60;46.60;;;;;;5050344;28;19912;-71
2022/05/15 11:10:21;;;;;;;;;;;27.60;46.20;;;;;;5066915;28;20337;-72
2022/05/15 11:12:55;;;;;;;;;;;27.70;46.50;;;;;;5065346;28;20338;-71
2022/05/15 11:15:35;;;;;;;;;;;27.80;44.50;;;;;;5065306;28;19920;-67
2022/05/15 11:18:16;;;;;;;;;;;27.80;45.70;;;;;;5069850;28;20281;-68
2022/05/15 11:20:47;;;;;;;;;;;28.00;46.30;;;;;;5069481;28;19962;-68
2022/05/15 11:23:20;;;;;;;;;;;28.10;47.30;;;;;;5064996;28;19962;-71
2022/05/15 11:25:51;;;;;;;;;;;28.20;45.50;;;;;;5066285;28;19931;-70
2022/05/15 11:28:20;;;;;;;;;;;28.30;46.10;;;;;;5066659;28;19920;-69
2022/05/15 11:30:47;;;;;;;;;;;28.40;44.60;;;;;;5067917;28;19913;-70
2022/05/15 11:33:25;;;;;;;;;;;28.50;44.50;;;;;;5065222;28;19916;-69
2022/05/15 11:36:09;;;;;;;;;;;28.60;45.10;;;;;;5071004;28;19919;-67
2022/05/15 11:38:45;;;;;;;;;;;28.70;44.30;;;;;;5068572;28;19917;-70
2022/05/15 11:41:43;;;;;;;;;;;28.80;43.00;;;;;;5069634;28;19973;-71
2022/05/15 11:44:31;;;;;;;;;;;28.80;41.80;;;;;;5068331;28;19915;-69
2022/05/15 11:47:01;;;;;;;;;;;28.90;43.50;;;;;;5066118;28;19963;-68
2022/05/15 11:49:39;;;;;;;;;;;28.90;42.90;;;;;;5062646;28;20909;-69
2022/05/15 11:52:08;;;;;;;;;;;29.10;43.50;;;;;;5067452;28;20319;-69
2022/05/15 11:54:37;;;;;;;;;;;29.30;42.00;;;;;;5071155;28;19912;-70
2022/05/15 11:57:05;;;;;;;;;;;29.50;43.00;;;;;;5067338;28;20436;-68
2022/05/15 11:59:33;;;;;;;;;;;29.60;41.30;;;;;;5068178;28;19987;-68
2022/05/15 12:02:03;;;;;;;;;;;29.70;41.60;;;;;;5064239;28;19916;-68
2022/05/15 12:04:35;;;;;;;;;;;29.90;42.60;;;;;;5069552;28;19951;-76
2022/05/15 12:07:00;;;;;;;;;;;30.10;41.70;;;;;;5067483;28;19912;-70
2022/05/15 12:09:31;;;;;;;;;;;30.30;40.30;;;;;;5070822;28;19946;-71
2022/05/15 12:12:17;;;;;;;;;;;30.40;40.10;;;;;;5070945;28;19912;-71
2022/05/15 12:15:01;;;;;;;;;;;30.70;41.20;;;;;;5070325;28;19942;-69
2022/05/15 12:17:29;;;;;;;;;;;30.90;39.20;;;;;;5063020;28;19919;-70
2022/05/15 12:20:05;;;;;;;;;;;31.10;38.90;;;;;;5071113;28;20383;-69
2022/05/15 12:22:36;;;;;;;;;;;31.20;37.70;;;;;;5068953;28;19908;-69
2022/05/15 12:25:08;;;;;;;;;;;31.30;37.80;;;;;;5048584;28;20018;-70
2022/05/15 12:27:39;;;;;;;;;;;31.60;37.90;;;;;;5068614;28;19920;-69
2022/05/15 12:30:13;;;;;;;;;;;31.80;37.70;;;;;;5068017;28;19958;-69
2022/05/15 12:32:53;;;;;;;;;;;32.00;36.80;;;;;;5069407;28;19917;-71
2022/05/15 12:35:30;;;;;;;;;;;32.00;36.50;;;;;;5071571;28;19969;-68
2022/05/15 12:37:58;;;;;;;;;;;32.10;36.80;;;;;;5065495;28;19916;-69
2022/05/15 12:40:34;;;;;;;;;;;32.30;38.50;;;;;;5069082;28;19926;-72
2022/05/15 12:43:01;;;;;;;;;;;32.50;37.60;;;;;;5069361;28;20377;-71
2022/05/15 12:45:27;;;;;;;;;;;32.60;37.10;;;;;;5071076;28;19908;-68
2022/05/15 12:48:07;;;;;;;;;;;32.70;35.20;;;;;;5067358;28;19938;-68
2022/05/15 12:50:33;;;;;;;;;;;32.70;36.60;;;;;;5069789;28;19908;-71
2022/05/15 12:53:01;;;;;;;;;;;32.80;35.30;;;;;;5064706;28;20289;-72
2022/05/15 12:55:27;;;;;;;;;;;32.80;34.60;;;;;;5065499;28;19926;-68
2022/05/15 12:57:54;;;;;;;;;;;32.80;34.40;;;;;;5066853;28;19938;-70
2022/05/15 13:00:23;;;;;;;;;;;33.00;34.30;;;;;;5069325;28;19909;-70
2022/05/15 13:02:49;;;;;;;;;;;33.00;34.90;;;;;;5064443;28;19909;-71
2022/05/15 13:05:18;;;;;;;;;;;33.00;33.90;;;;;;5053108;28;20379;-69
2022/05/15 13:07:43;;;;;;;;;;;33.10;34.60;;;;;;5065328;28;20718;-71
2022/05/15 13:10:10;;;;;;;;;;;33.10;33.80;;;;;;5061226;28;20377;-67
2022/05/15 13:12:48;;;;;;;;;;;33.00;34.00;;;;;;5064141;28;19912;-68
2022/05/15 13:15:14;;;;;;;;;;;32.80;34.10;;;;;;5063885;28;19909;-69
2022/05/15 13:17:40;;;;;;;;;;;32.50;33.90;;;;;;5066236;28;20387;-70
2022/05/15 13:20:15;;;;;;;;;;;32.20;34.80;;;;;;5069303;28;19944;-68
2022/05/15 13:22:41;;;;;;;;;;;32.00;35.10;;;;;;5064490;28;19983;-69
2022/05/15 13:25:12;;;;;;;;;;;31.70;35.70;;;;;;5063747;28;19912;-68
2022/05/15 13:27:41;;;;;;;;;;;31.50;37.20;;;;;;5066344;28;19923;-68
2022/05/15 13:30:18;;;;;;;;;;;31.40;37.00;;;;;;5069817;28;20002;-68
2022/05/15 13:32:45;;;;;;;;;;;31.40;37.10;;;;;;5064368;28;20436;-69
2022/05/15 13:35:12;;;;;;;;;;;31.20;35.60;;;;;;5067951;28;20007;-68
2022/05/15 13:37:38;;;;;;;;;;;31.20;35.20;;;;;;5062681;28;19927;-69
2022/05/15 13:45:46;;;;;;;;;;;31.10;36.90;;;;;;5067247;28;19962;-67
2022/05/15 13:48:12;;;;;;;;;;;31.10;36.30;;;;;;5059177;28;19971;-66
2022/05/15 13:50:48;;;;;;;;;;;31.00;37.80;;;;;;5070572;28;19952;-67
2022/05/15 13:53:17;;;;;;;;;;;30.90;36.80;;;;;;5064816;28;19920;-67
2022/05/15 13:55:42;;;;;;;;;;;30.90;35.50;;;;;;5067499;28;19962;-67
2022/05/15 13:58:08;;;;;;;;;;;30.90;36.60;;;;;;5049131;28;19916;-69
2022/05/15 14:00:35;;;;;;;;;;;30.90;37.70;;;;;;5067660;28;19908;-67
2022/05/15 14:03:02;;;;;;;;;;;30.90;35.80;;;;;;5068398;28;19908;-70
2022/05/15 14:05:32;;;;;;;;;;;30.90;35.60;;;;;;5065859;28;19978;-69
2022/05/15 14:08:15;;;;;;;;;;;30.80;35.80;;;;;;5067279;28;19948;-70
2022/05/15 14:10:41;;;;;;;;;;;30.80;35.10;;;;;;5065513;28;19913;-69
2022/05/15 14:13:08;;;;;;;;;;;30.80;35.50;;;;;;5066270;28;20390;-71
2022/05/15 14:15:40;;;;;;;;;;;30.80;34.60;;;;;;5066077;28;19916;-70
2022/05/15 14:18:11;;;;;;;;;;;30.90;35.10;;;;;;5052664;28;20271;-71
2022/05/15 14:20:38;;;;;;;;;;;31.00;35.00;;;;;;5066089;28;20439;-69
2022/05/15 14:23:05;;;;;;;;;;;31.10;35.60;;;;;;5068030;28;19915;-69
2022/05/15 14:25:31;;;;;;;;;;;31.10;35.00;;;;;;5065092;28;19913;-69
2022/05/15 14:27:57;;;;;;;;;;;31.20;34.90;;;;;;5069123;28;19939;-69
2022/05/15 14:30:23;;;;;;;;;;;31.20;34.70;;;;;;5065528;28;19916;-70
2022/05/15 14:32:50;;;;;;;;;;;31.10;35.20;;;;;;5066661;28;19919;-69
2022/05/15 14:35:18;;;;;;;;;;;30.90;34.70;;;;;;5066817;28;19912;-69